Time;durP1;ratioP1;P1;durP2;ratioP2;P2;SDS_P1;SDS_P2;PMS_P1;PMS_P2;Temp;Humidity;BMP_temperature;BMP_pressure;BME280_temperature;BME280_humidity;BME280_pressure;Samples;Min_cycle;Max_cycle;Signal;HPM_P1;HPM_P2
2023/08/27 00:01:03;;;;;;;0.00;0.00;;;20.40;99.90;;;;;;5083319;28;20070;-76
2023/08/27 00:03:29;;;;;;;0.35;0.35;;;20.30;99.90;;;;;;5083777;28;20036;-76
2023/08/27 00:05:56;;;;;;;1.67;1.58;;;20.30;99.90;;;;;;5065986;28;20024;-75
2023/08/27 00:08:23;;;;;;;0.28;0.28;;;18.80;99.90;;;;;;5065593;28;20509;-76
2023/08/27 00:10:50;;;;;;;18.52;7.75;;;20.10;99.90;;;;;;5065832;28;20234;-75
2023/08/27 00:13:16;;;;;;;0.00;0.00;;;20.20;99.90;;;;;;5083795;28;20087;-75
2023/08/27 00:15:46;;;;;;;0.55;0.55;;;20.20;99.90;;;;;;5083336;28;20012;-75
2023/08/27 00:18:13;;;;;;;0.00;0.00;;;20.20;99.90;;;;;;5083423;28;20024;-76
2023/08/27 00:20:41;;;;;;;0.10;0.10;;;20.20;99.90;;;;;;5083482;28;20077;-76
2023/08/27 00:23:11;;;;;;;0.38;0.38;;;19.70;99.90;;;;;;5065733;28;20225;-76
2023/08/27 00:25:38;;;;;;;0.03;0.03;;;20.40;99.90;;;;;;5084172;28;20012;-76
2023/08/27 00:28:04;;;;;;;0.00;0.00;;;20.20;99.90;;;;;;5065089;28;20343;-75
2023/08/27 00:30:31;;;;;;;0.43;0.43;;;20.10;99.90;;;;;;5083598;28;20028;-75
2023/08/27 00:32:57;;;;;;;6.93;5.10;;;20.10;99.90;;;;;;5083479;28;20571;-77
2023/08/27 00:35:24;;;;;;;0.00;0.00;;;20.10;99.90;;;;;;5065339;28;20196;-76
2023/08/27 00:37:51;;;;;;;0.10;0.10;;;20.00;99.90;;;;;;5064098;28;20040;-76
2023/08/27 00:40:17;;;;;;;1.77;1.17;;;20.00;99.90;;;;;;5083706;28;20020;-76
2023/08/27 00:42:43;;;;;;;0.10;0.10;;;20.00;99.90;;;;;;5082531;28;20263;-76
2023/08/27 00:45:09;;;;;;;1.65;1.58;;;20.00;99.90;;;;;;5083500;28;20016;-76
2023/08/27 00:47:37;;;;;;;0.00;0.00;;;19.90;99.90;;;;;;5082766;28;20305;-76
2023/08/27 00:50:07;;;;;;;0.30;0.30;;;19.90;99.90;;;;;;5083564;28;20028;-76
2023/08/27 00:52:34;;;;;;;0.30;0.30;;;19.90;99.90;;;;;;5065410;28;20247;-75
2023/08/27 00:55:03;;;;;;;0.10;0.10;;;19.90;99.90;;;;;;5083841;28;20579;-76
2023/08/27 00:57:33;;;;;;;0.00;0.00;;;19.80;99.90;;;;;;5065706;28;20029;-76
2023/08/27 01:00:00;;;;;;;0.15;0.15;;;19.80;99.90;;;;;;5082637;28;20795;-76
2023/08/27 01:02:26;;;;;;;7.85;7.38;;;19.90;99.90;;;;;;5083264;28;20536;-75
2023/08/27 01:04:53;;;;;;;0.00;0.00;;;19.90;99.90;;;;;;5064758;28;20016;-76
2023/08/27 01:07:47;;;;;;;0.00;0.00;;;19.80;99.90;;;;;;5065199;28;20134;-77
2023/08/27 01:10:36;;;;;;;0.00;0.00;;;19.80;99.90;;;;;;5064589;28;20016;-76
2023/08/27 01:13:12;;;;;;;0.00;0.00;;;19.80;99.90;;;;;;5082848;28;20111;-77
2023/08/27 01:15:40;;;;;;;0.75;0.75;;;19.80;99.90;;;;;;5083142;28;20126;-75
2023/08/27 01:18:09;;;;;;;0.10;0.10;;;19.70;99.90;;;;;;5082538;28;20099;-77
2023/08/27 01:20:35;;;;;;;0.38;0.38;;;19.60;99.90;;;;;;5083782;28;20028;-81
2023/08/27 01:23:02;;;;;;;0.17;0.17;;;19.70;99.90;;;;;;5082833;28;20030;-76
2023/08/27 01:25:40;;;;;;;8.95;8.18;;;19.50;99.90;;;;;;5082315;28;20016;-75
2023/08/27 01:28:16;;;;;;;0.95;0.95;;;19.90;99.90;;;;;;5082696;28;20016;-78
2023/08/27 01:30:55;;;;;;;0.00;0.00;;;19.80;99.90;;;;;;5064598;28;20042;-78
2023/08/27 01:33:26;;;;;;;0.00;0.00;;;19.80;99.90;;;;;;5082085;28;20031;-74
2023/08/27 01:35:57;;;;;;;0.03;0.03;;;20.40;99.90;;;;;;5064640;28;20403;-75
2023/08/27 01:38:23;;;;;;;0.10;0.10;;;20.20;99.90;;;;;;5082121;28;20024;-76
2023/08/27 01:40:50;;;;;;;0.35;0.35;;;19.80;99.90;;;;;;5082429;28;20019;-76
2023/08/27 01:43:16;;;;;;;1.17;1.08;;;20.30;99.90;;;;;;5083014;28;20563;-77
2023/08/27 01:45:42;;;;;;;0.47;0.47;;;19.70;99.90;;;;;;5063910;28;20019;-76
2023/08/27 01:48:08;;;;;;;0.10;0.10;;;20.40;99.90;;;;;;5082571;28;20577;-76
2023/08/27 01:50:35;;;;;;;0.13;0.13;;;20.30;99.90;;;;;;5082025;28;20108;-75
2023/08/27 01:53:02;;;;;;;1.08;0.75;;;17.80;99.90;;;;;;5063430;28;20459;-76
2023/08/27 01:55:29;;;;;;;0.10;0.10;;;20.20;99.90;;;;;;5081484;28;20582;-77
2023/08/27 01:57:56;;;;;;;0.10;0.10;;;22.00;99.90;;;;;;5082196;28;20592;-75
2023/08/27 02:00:22;;;;;;;0.15;0.15;;;20.30;99.90;;;;;;5081898;28;20088;-76
2023/08/27 02:02:50;;;;;;;0.10;0.10;;;20.30;99.90;;;;;;5080056;28;20038;-76
2023/08/27 02:05:16;;;;;;;0.45;0.43;;;20.10;99.90;;;;;;5062880;28;20028;-75
2023/08/27 02:07:42;;;;;;;1.67;1.10;;;20.70;99.90;;;;;;5063335;28;20027;-75
2023/08/27 02:10:09;;;;;;;0.10;0.10;;;20.10;99.90;;;;;;5081709;28;20081;-76
2023/08/27 02:12:36;;;;;;;0.00;0.00;;;;;;;;;;5062275;28;20055;-76
2023/08/27 02:15:03;;;;;;;0.00;0.00;;;20.30;99.90;;;;;;5062241;28;20678;-76
2023/08/27 02:17:30;;;;;;;0.25;0.25;;;20.10;99.90;;;;;;5062293;28;20090;-76
2023/08/27 02:19:56;;;;;;;0.20;0.20;;;20.20;99.90;;;;;;5062676;28;20024;-77
2023/08/27 02:22:23;;;;;;;0.05;0.05;;;20.00;99.90;;;;;;5081181;28;20071;-76
2023/08/27 02:24:49;;;;;;;0.00;0.00;;;18.10;99.90;;;;;;5063036;28;20021;-75
2023/08/27 02:27:15;;;;;;;0.00;0.00;;;19.70;99.90;;;;;;5081531;28;20028;-76
2023/08/27 02:29:42;;;;;;;0.28;0.28;;;20.40;99.90;;;;;;5081842;28;20513;-75
2023/08/27 02:32:08;;;;;;;0.00;0.00;;;19.90;99.90;;;;;;5081953;28;20083;-75
2023/08/27 02:34:34;;;;;;;0.00;0.00;;;20.00;99.90;;;;;;5062950;28;20109;-74
2023/08/27 02:37:00;;;;;;;0.00;0.00;;;20.30;99.90;;;;;;5080191;28;20045;-74
2023/08/27 02:39:27;;;;;;;0.98;0.90;;;;;;;;;;5081597;28;20428;-76
2023/08/27 02:41:53;;;;;;;0.08;0.08;;;20.20;99.90;;;;;;5080958;28;20016;-75
2023/08/27 02:44:19;;;;;;;3.45;3.30;;;20.40;99.90;;;;;;5081011;28;20016;-75
2023/08/27 02:46:45;;;;;;;0.20;0.20;;;20.50;99.90;;;;;;5081145;28;20028;-75
2023/08/27 02:49:11;;;;;;;0.10;0.10;;;20.80;99.90;;;;;;5080723;28;20421;-75
2023/08/27 02:51:37;;;;;;;0.10;0.10;;;20.70;99.90;;;;;;5081504;28;20506;-76
2023/08/27 02:54:04;;;;;;;0.57;0.57;;;;;;;;;;5081226;28;20300;-76
2023/08/27 02:56:30;;;;;;;0.00;0.00;;;20.20;99.90;;;;;;5062409;28;20028;-76
2023/08/27 02:58:56;;;;;;;0.10;0.10;;;20.20;99.90;;;;;;5081718;28;20016;-76
2023/08/27 03:01:22;;;;;;;0.40;0.40;;;20.20;99.90;;;;;;5085382;28;20651;-76
2023/08/27 03:03:49;;;;;;;0.10;0.10;;;19.90;99.90;;;;;;5084887;28;20241;-75
2023/08/27 03:06:16;;;;;;;0.00;0.00;;;16.40;99.90;;;;;;5084133;28;20023;-75
2023/08/27 03:08:42;;;;;;;0.10;0.10;;;19.50;99.90;;;;;;5084386;28;20056;-77
2023/08/27 03:11:08;;;;;;;0.00;0.00;;;19.30;99.90;;;;;;5085285;28;20032;-76
2023/08/27 03:13:35;;;;;;;0.20;0.20;;;19.20;99.90;;;;;;5084305;28;20130;-76
2023/08/27 03:16:01;;;;;;;0.00;0.00;;;19.10;99.90;;;;;;5083931;28;20040;-75
2023/08/27 03:18:29;;;;;;;0.00;0.00;;;19.10;99.90;;;;;;5083473;28;20524;-76
2023/08/27 03:20:56;;;;;;;0.10;0.10;;;19.10;99.90;;;;;;5083599;28;20309;-76
2023/08/27 03:23:22;;;;;;;0.52;0.52;;;19.30;99.90;;;;;;5083731;28;20016;-75
2023/08/27 03:25:50;;;;;;;0.00;0.00;;;19.30;99.90;;;;;;5064972;28;20031;-75
2023/08/27 03:28:17;;;;;;;0.10;0.10;;;19.10;99.90;;;;;;5083201;28;20720;-75
2023/08/27 03:30:44;;;;;;;0.20;0.20;;;19.40;99.90;;;;;;5082868;28;20100;-75
2023/08/27 03:33:10;;;;;;;0.00;0.00;;;19.90;99.90;;;;;;5083531;28;20513;-75
2023/08/27 03:35:36;;;;;;;5.05;4.57;;;20.30;99.90;;;;;;5084089;28;20031;-76
2023/08/27 03:38:02;;;;;;;0.10;0.10;;;20.70;99.90;;;;;;5083866;28;20032;-76
2023/08/27 03:40:30;;;;;;;0.00;0.00;;;20.70;99.90;;;;;;5083902;28;20012;-76
2023/08/27 03:42:56;;;;;;;0.10;0.10;;;20.80;99.90;;;;;;5082922;28;20028;-75
2023/08/27 03:45:23;;;;;;;0.00;0.00;;;21.00;99.90;;;;;;5082952;28;20577;-76
2023/08/27 03:47:49;;;;;;;7.97;2.65;;;21.20;99.90;;;;;;5084406;28;20024;-76
2023/08/27 03:50:15;;;;;;;0.00;0.00;;;20.70;99.90;;;;;;5084094;28;20539;-76
2023/08/27 03:52:42;;;;;;;0.00;0.00;;;21.40;99.90;;;;;;5065531;28;20024;-75
2023/08/27 03:55:10;;;;;;;0.10;0.10;;;21.70;99.90;;;;;;5065406;28;20122;-75
2023/08/27 03:57:37;;;;;;;2.50;2.35;;;21.40;99.90;;;;;;5065783;28;20043;-76
2023/08/27 04:00:05;;;;;;;6.13;3.40;;;21.50;99.90;;;;;;5082421;28;20347;-75
2023/08/27 04:02:31;;;;;;;2.50;2.40;;;20.90;99.90;;;;;;5082733;28;20024;-75
2023/08/27 04:04:57;;;;;;;0.00;0.00;;;;;;;;;;5082476;28;20035;-76
2023/08/27 04:07:23;;;;;;;0.20;0.20;;;20.60;99.90;;;;;;5083131;28;20611;-75
2023/08/27 04:09:49;;;;;;;0.00;0.00;;;20.70;99.90;;;;;;5083498;28;20734;-75
2023/08/27 04:12:16;;;;;;;0.00;0.00;;;20.40;99.90;;;;;;5083532;28;20016;-75
2023/08/27 04:14:43;;;;;;;3.53;1.02;;;20.00;99.90;;;;;;5083521;28;20672;-75
2023/08/27 04:17:09;;;;;;;0.15;0.15;;;19.80;99.90;;;;;;5082276;28;20048;-75
2023/08/27 04:19:35;;;;;;;0.95;0.95;;;19.50;99.90;;;;;;5082450;28;20082;-76
2023/08/27 04:22:01;;;;;;;0.32;0.32;;;19.20;99.90;;;;;;5082825;28;20032;-75
2023/08/27 04:24:28;;;;;;;0.05;0.05;;;19.20;99.90;;;;;;5082847;28;20642;-77
2023/08/27 04:26:55;;;;;;;0.00;0.00;;;19.30;99.90;;;;;;5064666;28;20060;-76
2023/08/27 04:29:22;;;;;;;2.55;1.45;;;19.30;99.90;;;;;;5064322;28;20027;-76
2023/08/27 04:31:48;;;;;;;0.30;0.30;;;;;;;;;;5064607;28;20073;-76
2023/08/27 04:34:15;;;;;;;0.10;0.10;;;19.10;99.90;;;;;;5082695;28;20135;-77
2023/08/27 04:36:41;;;;;;;0.00;0.00;;;19.00;99.90;;;;;;5083307;28;20112;-76
2023/08/27 04:39:08;;;;;;;0.10;0.10;;;18.90;99.90;;;;;;5064638;28;20028;-75
2023/08/27 04:41:35;;;;;;;0.22;0.22;;;19.10;99.90;;;;;;5064672;28;20027;-75
2023/08/27 04:44:01;;;;;;;0.00;0.00;;;19.00;99.90;;;;;;5064024;28;20024;-76
2023/08/27 04:46:27;;;;;;;0.03;0.03;;;19.10;99.90;;;;;;5082193;28;20313;-76
2023/08/27 04:48:54;;;;;;;0.00;0.00;;;18.90;99.90;;;;;;5064030;28;20560;-76
2023/08/27 04:51:20;;;;;;;0.80;0.80;;;19.10;99.90;;;;;;5064004;28;20066;-76
2023/08/27 04:53:46;;;;;;;0.10;0.10;;;19.30;99.90;;;;;;5083599;28;20047;-76
2023/08/27 04:56:12;;;;;;;0.00;0.00;;;19.30;99.90;;;;;;5082173;28;20030;-76
2023/08/27 04:58:39;;;;;;;1.17;0.82;;;19.70;99.90;;;;;;5082035;28;20585;-76
2023/08/27 05:01:05;;;;;;;0.00;0.00;;;20.10;99.90;;;;;;5081493;28;20016;-76
2023/08/27 05:03:31;;;;;;;0.10;0.10;;;20.30;99.90;;;;;;5061490;28;20671;-76
2023/08/27 05:05:57;;;;;;;16.48;4.57;;;20.50;99.90;;;;;;5081428;28;20562;-75
2023/08/27 05:08:23;;;;;;;0.70;0.70;;;20.60;99.90;;;;;;5063560;28;20383;-77
2023/08/27 05:10:50;;;;;;;0.00;0.00;;;20.90;99.90;;;;;;5082003;28;20740;-77
2023/08/27 05:13:17;;;;;;;0.20;0.20;;;21.10;99.90;;;;;;5082041;28;20045;-77
2023/08/27 05:15:43;;;;;;;0.20;0.20;;;21.40;99.90;;;;;;5081114;28;20042;-77
2023/08/27 05:18:09;;;;;;;0.00;0.00;;;21.00;99.90;;;;;;5062758;28;20127;-77
2023/08/27 05:20:37;;;;;;;0.00;0.00;;;21.10;99.90;;;;;;5063214;28;20532;-75
2023/08/27 05:23:04;;;;;;;0.45;0.45;;;21.40;99.90;;;;;;5081584;28;20028;-76
2023/08/27 05:25:30;;;;;;;1.15;0.80;;;21.40;99.90;;;;;;5081910;28;20012;-76
2023/08/27 05:27:56;;;;;;;0.10;0.10;;;21.60;99.90;;;;;;5064154;28;20118;-77
2023/08/27 05:30:24;;;;;;;0.00;0.00;;;21.60;99.90;;;;;;5063396;28;20043;-76
2023/08/27 05:32:50;;;;;;;0.32;0.32;;;21.70;99.90;;;;;;5081834;28;20124;-76
2023/08/27 05:35:17;;;;;;;1.27;1.17;;;21.80;99.90;;;;;;5063158;28;20529;-76
2023/08/27 05:37:44;;;;;;;0.10;0.10;;;21.80;99.90;;;;;;5080739;28;20382;-76
2023/08/27 05:40:10;;;;;;;2.58;2.47;;;21.80;99.90;;;;;;5063052;28;20024;-76
2023/08/27 05:42:36;;;;;;;0.30;0.30;;;22.00;99.90;;;;;;5081647;28;20217;-76
2023/08/27 05:45:03;;;;;;;0.25;0.25;;;21.80;99.90;;;;;;5063607;28;20094;-76
2023/08/27 05:47:30;;;;;;;0.90;0.90;;;21.70;99.90;;;;;;5081157;28;20097;-76
2023/08/27 05:49:56;;;;;;;0.15;0.15;;;21.60;99.90;;;;;;5081280;28;20367;-76
2023/08/27 05:52:23;;;;;;;0.08;0.08;;;21.30;99.90;;;;;;5081213;28;20020;-76
2023/08/27 05:54:49;;;;;;;0.98;0.95;;;22.00;99.90;;;;;;5081060;28;20021;-77
2023/08/27 05:57:16;;;;;;;0.05;0.05;;;22.00;99.90;;;;;;5081655;28;20036;-76
2023/08/27 05:59:42;;;;;;;0.55;0.55;;;22.20;99.90;;;;;;5062102;28;20016;-76
2023/08/27 06:02:13;;;;;;;0.10;0.10;;;22.70;99.90;;;;;;5062171;28;20812;-77
2023/08/27 06:04:40;;;;;;;6.82;3.60;;;22.30;99.90;;;;;;5080130;28;20563;-77
2023/08/27 06:07:08;;;;;;;0.52;0.52;;;21.30;99.90;;;;;;5063260;28;20032;-76
2023/08/27 06:09:34;;;;;;;0.00;0.00;;;22.50;99.90;;;;;;5081379;28;20250;-76
2023/08/27 06:12:00;;;;;;;0.20;0.20;;;22.10;99.90;;;;;;5061974;28;20024;-76
2023/08/27 06:14:26;;;;;;;0.10;0.10;;;22.10;99.90;;;;;;5080904;28;20206;-75
2023/08/27 06:16:52;;;;;;;1.85;1.75;;;22.00;99.90;;;;;;5080076;28;20547;-76
2023/08/27 06:19:18;;;;;;;0.40;0.35;;;22.20;99.90;;;;;;5081701;28;20095;-78
2023/08/27 06:21:45;;;;;;;5.38;4.95;;;22.40;99.90;;;;;;5080829;28;20065;-75
2023/08/27 06:24:11;;;;;;;0.10;0.10;;;22.50;99.90;;;;;;5080675;28;20118;-77
2023/08/27 06:26:37;;;;;;;2.08;1.95;;;22.70;99.90;;;;;;5081097;28;20597;-77
2023/08/27 06:29:05;;;;;;;0.85;0.85;;;22.80;99.90;;;;;;5081044;28;20020;-77
2023/08/27 06:31:32;;;;;;;0.03;0.03;;;22.90;99.90;;;;;;5061611;28;20054;-77
2023/08/27 06:33:58;;;;;;;0.30;0.30;;;22.70;99.90;;;;;;5083135;28;20066;-77
2023/08/27 06:36:24;;;;;;;3.20;1.55;;;22.50;99.90;;;;;;5083291;28;20257;-78
2023/08/27 06:38:50;;;;;;;0.38;0.38;;;22.80;99.90;;;;;;5084058;28;20115;-78
2023/08/27 06:41:16;;;;;;;0.00;0.00;;;;;;;;;;5083853;28;20415;-77
2023/08/27 06:43:42;;;;;;;0.00;0.00;;;22.60;99.90;;;;;;5063573;28;20453;-78
2023/08/27 06:46:11;;;;;;;0.30;0.30;;;22.80;99.90;;;;;;5085284;28;20016;-78
2023/08/27 06:48:37;;;;;;;1.95;1.77;;;23.20;99.90;;;;;;5066770;28;20119;-77
2023/08/27 06:51:04;;;;;;;0.03;0.03;;;23.70;99.90;;;;;;5084068;28;20157;-77
2023/08/27 06:53:30;;;;;;;0.03;0.03;;;23.10;99.90;;;;;;5083347;28;20023;-77
2023/08/27 06:55:56;;;;;;;0.10;0.10;;;23.10;99.90;;;;;;5084443;28;20077;-77
2023/08/27 06:58:23;;;;;;;0.00;0.00;;;23.30;99.90;;;;;;5083628;28;20032;-76
2023/08/27 07:00:49;;;;;;;0.00;0.00;;;22.80;99.90;;;;;;5083316;28;20078;-77
2023/08/27 07:03:15;;;;;;;0.05;0.03;;;23.50;99.90;;;;;;5064439;28;20036;-77
2023/08/27 07:05:41;;;;;;;0.30;0.30;;;23.50;99.90;;;;;;5083256;28;20095;-77
2023/08/27 07:08:08;;;;;;;0.00;0.00;;;23.60;99.90;;;;;;5082349;28;20020;-76
2023/08/27 07:10:33;;;;;;;1.65;1.65;;;23.70;99.90;;;;;;5063290;28;20580;-78
2023/08/27 07:12:59;;;;;;;0.00;0.00;;;23.70;99.90;;;;;;5081437;28;20099;-77
2023/08/27 07:15:25;;;;;;;1.95;0.77;;;23.90;99.90;;;;;;5065021;28;20028;-77
2023/08/27 07:17:51;;;;;;;0.00;0.00;;;24.10;99.90;;;;;;5082450;28;20662;-77
2023/08/27 07:20:17;;;;;;;0.47;0.47;;;24.10;99.90;;;;;;5082724;28;20020;-75
2023/08/27 07:22:43;;;;;;;1.40;1.30;;;24.40;99.90;;;;;;5064903;28;20653;-75
2023/08/27 07:25:10;;;;;;;0.43;0.43;;;24.20;99.90;;;;;;5083468;28;20111;-74
2023/08/27 07:27:36;;;;;;;0.00;0.00;;;24.60;99.90;;;;;;5083000;28;20023;-75
2023/08/27 07:30:02;;;;;;;1.00;0.95;;;24.40;99.90;;;;;;5065554;28;20553;-75
2023/08/27 07:32:28;;;;;;;0.00;0.00;;;24.40;99.90;;;;;;5081974;28;20041;-75
2023/08/27 07:34:54;;;;;;;1.02;0.65;;;24.30;99.90;;;;;;5082666;28;20711;-76
2023/08/27 07:37:20;;;;;;;0.73;0.32;;;24.40;99.90;;;;;;5082209;28;20519;-76
2023/08/27 07:39:46;;;;;;;1.08;0.98;;;24.50;99.90;;;;;;5081495;28;20020;-78
2023/08/27 07:42:12;;;;;;;0.05;0.05;;;24.70;99.90;;;;;;5082441;28;20027;-81
2023/08/27 07:44:38;;;;;;;1.17;1.10;;;24.70;99.90;;;;;;5081216;28;20027;-76
2023/08/27 07:47:04;;;;;;;0.00;0.00;;;24.90;99.90;;;;;;5080992;28;20028;-77
2023/08/27 07:49:29;;;;;;;0.47;0.35;;;24.90;99.90;;;;;;5062556;28;20062;-76
2023/08/27 07:51:55;;;;;;;0.98;0.73;;;25.00;99.90;;;;;;5081273;28;20254;-76
2023/08/27 07:54:24;;;;;;;1.05;1.05;;;25.30;99.90;;;;;;5083229;28;20060;-75
2023/08/27 07:56:50;;;;;;;1.83;0.47;;;25.20;99.90;;;;;;5082602;28;20024;-75
2023/08/27 07:59:16;;;;;;;0.00;0.00;;;25.50;99.90;;;;;;5064681;28;20024;-75
2023/08/27 08:01:42;;;;;;;0.00;0.00;;;;;;;;;;5083228;28;20040;-77
2023/08/27 08:04:08;;;;;;;2.95;2.72;;;25.60;99.90;;;;;;5082837;28;20031;-75
2023/08/27 08:06:34;;;;;;;0.10;0.10;;;25.80;99.90;;;;;;5063869;28;20039;-75
2023/08/27 08:09:00;;;;;;;1.30;0.30;;;25.90;99.90;;;;;;5064192;28;20024;-76
2023/08/27 08:11:26;;;;;;;0.00;0.00;;;26.10;99.90;;;;;;5081358;28;20027;-76
2023/08/27 08:13:52;;;;;;;0.80;0.63;;;26.00;99.90;;;;;;5081657;28;20020;-75
2023/08/27 08:16:19;;;;;;;0.08;0.08;;;26.10;99.90;;;;;;5064153;28;20536;-75
2023/08/27 08:18:45;;;;;;;0.00;0.00;;;26.30;99.90;;;;;;5081445;28;20107;-75
2023/08/27 08:21:12;;;;;;;0.00;0.00;;;26.50;99.90;;;;;;5082164;28;20663;-75
2023/08/27 08:23:38;;;;;;;0.00;0.00;;;26.20;99.90;;;;;;5062113;28;20070;-75
2023/08/27 08:26:05;;;;;;;0.82;0.75;;;26.60;99.90;;;;;;5082135;28;20040;-75
2023/08/27 08:28:31;;;;;;;0.25;0.25;;;26.90;99.90;;;;;;5082264;28;20050;-75
2023/08/27 08:30:57;;;;;;;0.90;0.70;;;27.10;99.90;;;;;;5081626;28;20629;-75
2023/08/27 08:33:23;;;;;;;0.73;0.73;;;27.30;99.90;;;;;;5081149;28;20032;-76
2023/08/27 08:35:48;;;;;;;1.90;1.83;;;27.40;99.90;;;;;;5080138;28;20028;-76
2023/08/27 08:38:14;;;;;;;0.85;0.50;;;27.40;99.90;;;;;;5080343;28;20112;-76
2023/08/27 08:40:44;;;;;;;0.00;0.00;;;27.60;99.90;;;;;;5082076;28;20257;-75
2023/08/27 08:43:38;;;;;;;0.20;0.20;;;27.90;99.90;;;;;;5080697;28;20013;-76
2023/08/27 08:46:05;;;;;;;0.10;0.10;;;27.90;99.90;;;;;;5080486;28;20553;-75
2023/08/27 08:48:40;;;;;;;3.92;3.70;;;27.90;99.90;;;;;;5080233;28;20047;-76
2023/08/27 08:51:08;;;;;;;0.13;0.13;;;28.40;99.90;;;;;;5062277;28;20058;-75
2023/08/27 08:53:39;;;;;;;0.30;0.30;;;28.40;99.90;;;;;;5080823;28;20016;-75
2023/08/27 08:56:10;;;;;;;0.20;0.20;;;28.60;99.90;;;;;;5080294;28;20604;-76
2023/08/27 08:58:37;;;;;;;0.93;0.57;;;28.80;99.90;;;;;;5079822;28;20056;-77
2023/08/27 09:01:04;;;;;;;0.55;0.55;;;28.90;99.90;;;;;;5080833;28;20104;-75
2023/08/27 09:03:32;;;;;;;0.17;0.17;;;29.00;99.90;;;;;;5080329;28;20028;-75
2023/08/27 09:05:58;;;;;;;0.73;0.43;;;29.00;99.90;;;;;;5079907;28;20077;-77
2023/08/27 09:08:25;;;;;;;0.75;0.17;;;29.20;99.90;;;;;;5080066;28;20020;-77
2023/08/27 09:10:52;;;;;;;1.10;0.57;;;29.30;99.90;;;;;;5080710;28;20050;-75
2023/08/27 09:13:21;;;;;;;0.80;0.80;;;29.40;99.90;;;;;;5080466;28;20399;-76
2023/08/27 09:15:49;;;;;;;0.30;0.30;;;29.60;99.90;;;;;;5080648;28;20012;-75
2023/08/27 09:18:16;;;;;;;0.10;0.10;;;29.70;99.90;;;;;;5080469;28;20087;-76
2023/08/27 09:20:45;;;;;;;0.00;0.00;;;29.30;99.90;;;;;;5062608;28;20024;-75
2023/08/27 09:23:13;;;;;;;0.55;0.55;;;29.90;99.90;;;;;;5061594;28;20557;-75
2023/08/27 09:25:39;;;;;;;0.00;0.00;;;30.00;99.90;;;;;;5060892;28;20580;-76
2023/08/27 09:28:06;;;;;;;3.63;1.55;;;28.50;99.10;;;;;;5079851;28;20020;-75
2023/08/27 09:30:33;;;;;;;0.52;0.35;;;30.10;99.90;;;;;;5079774;28;20016;-75
2023/08/27 09:32:58;;;;;;;0.10;0.10;;;30.20;99.90;;;;;;5078962;28;20020;-76
2023/08/27 09:35:40;;;;;;;0.85;0.85;;;30.40;99.90;;;;;;5079884;28;20198;-75
2023/08/27 09:38:07;;;;;;;1.27;0.80;;;30.50;99.90;;;;;;5079313;28;20123;-75
2023/08/27 09:40:33;;;;;;;0.30;0.30;;;30.70;99.80;;;;;;5079626;28;20016;-75
2023/08/27 09:43:07;;;;;;;0.57;0.57;;;30.90;99.30;;;;;;5079289;28;20233;-75
2023/08/27 09:45:34;;;;;;;0.10;0.10;;;30.90;98.00;;;;;;5079944;28;20107;-76
2023/08/27 09:48:00;;;;;;;0.10;0.10;;;31.10;97.00;;;;;;5078575;28;20099;-77
2023/08/27 09:50:29;;;;;;;0.68;0.68;;;31.00;97.20;;;;;;5079792;28;20398;-77
2023/08/27 09:53:05;;;;;;;0.40;0.40;;;31.00;98.40;;;;;;5060993;28;20024;-77
2023/08/27 09:55:33;;;;;;;2.45;0.95;;;30.90;97.10;;;;;;5080031;28;20031;-75
2023/08/27 09:57:59;;;;;;;5.72;1.77;;;31.10;98.20;;;;;;5079070;28;20241;-75
2023/08/27 10:00:29;;;;;;;0.00;0.00;;;31.00;97.30;;;;;;5079625;28;20019;-75
2023/08/27 10:02:56;;;;;;;0.55;0.45;;;28.30;96.70;;;;;;5061536;28;20115;-76
2023/08/27 10:05:30;;;;;;;0.73;0.60;;;31.30;96.10;;;;;;5079587;28;20089;-77
2023/08/27 10:07:58;;;;;;;0.00;0.00;;;31.40;96.40;;;;;;5078678;28;20043;-75
2023/08/27 10:10:24;;;;;;;0.60;0.60;;;31.60;96.00;;;;;;5078633;28;20019;-78
2023/08/27 10:12:50;;;;;;;0.57;0.55;;;31.50;95.20;;;;;;5078174;28;20024;-76
2023/08/27 10:15:18;;;;;;;0.13;0.13;;;31.40;96.10;;;;;;5079199;28;20008;-76
2023/08/27 10:17:44;;;;;;;4.28;0.75;;;31.80;95.90;;;;;;5078258;28;20600;-79
2023/08/27 10:20:13;;;;;;;0.93;0.50;;;32.00;95.30;;;;;;5077879;28;20494;-76
2023/08/27 10:22:41;;;;;;;0.75;0.65;;;32.00;95.10;;;;;;5078518;28;20228;-76
2023/08/27 10:25:08;;;;;;;0.75;0.75;;;32.10;94.40;;;;;;5078728;28;20012;-75
2023/08/27 10:27:36;;;;;;;0.93;0.55;;;32.70;93.60;;;;;;5060226;28;20016;-75
2023/08/27 10:30:07;;;;;;;0.35;0.35;;;32.50;91.50;;;;;;5078040;28;20012;-77
2023/08/27 10:32:33;;;;;;;0.88;0.85;;;32.70;89.80;;;;;;5077678;28;20024;-77
2023/08/27 10:35:00;;;;;;;2.17;2.00;;;32.80;91.00;;;;;;5078395;28;20012;-77
2023/08/27 10:37:28;;;;;;;1.35;0.75;;;32.90;92.20;;;;;;5078580;28;20031;-78
2023/08/27 10:39:57;;;;;;;1.55;0.63;;;33.00;91.80;;;;;;5077797;28;20016;-76
2023/08/27 10:42:31;;;;;;;0.10;0.10;;;33.10;91.40;;;;;;5077500;28;20201;-76
2023/08/27 10:45:21;;;;;;;8.10;2.38;;;33.20;90.00;;;;;;5077388;28;20038;-76
2023/08/27 10:48:07;;;;;;;6.53;0.55;;;33.90;90.40;;;;;;5077524;28;20043;-75
2023/08/27 10:50:50;;;;;;;0.45;0.45;;;33.60;86.60;;;;;;5078243;28;20024;-75
2023/08/27 10:53:16;;;;;;;;;;;33.80;86.80;;;;;;5061582;28;20027;-75
2023/08/27 10:55:48;;;;;;;1.90;0.65;;;34.00;84.70;;;;;;5077583;28;19904;-75
2023/08/27 10:58:25;;;;;;;;;;;34.00;84.80;;;;;;5082173;28;20039;-75
2023/08/27 11:01:11;;;;;;;0.00;0.00;;;34.10;84.50;;;;;;5062459;28;19900;-76
2023/08/27 11:04:01;;;;;;;0.20;0.20;;;34.40;83.20;;;;;;5062991;28;20028;-75
2023/08/27 11:06:45;;;;;;;1.23;0.55;;;33.30;79.30;;;;;;5063352;28;20035;-77
2023/08/27 11:09:29;;;;;;;0.30;0.30;;;34.40;80.00;;;;;;5064118;28;20012;-77
2023/08/27 11:12:00;;;;;;;0.10;0.10;;;34.80;79.70;;;;;;5080258;28;20736;-77
2023/08/27 11:14:26;;;;;;;0.98;0.70;;;34.90;79.40;;;;;;5079745;28;20019;-79
2023/08/27 11:17:04;;;;;;;0.30;0.30;;;35.10;77.80;;;;;;5058777;28;20593;-79
2023/08/27 11:19:30;;;;;;;1.95;1.85;;;35.40;76.80;;;;;;5059584;28;20063;-77
2023/08/27 11:22:21;;;;;;;0.20;0.20;;;37.40;77.40;;;;;;5061828;28;20013;-77
2023/08/27 11:24:48;;;;;;;0.73;0.63;;;35.60;75.10;;;;;;5061641;28;20020;-76
2023/08/27 11:27:16;;;;;;;0.45;0.35;;;36.10;74.70;;;;;;5061143;28;20032;-78
2023/08/27 11:29:45;;;;;;;0.32;0.32;;;36.40;73.70;;;;;;5061937;28;20683;-80
2023/08/27 11:32:12;;;;;;;0.08;0.08;;;36.70;72.90;;;;;;5061817;28;20016;-77
2023/08/27 11:34:40;;;;;;;0.75;0.75;;;36.70;73.60;;;;;;5060155;28;20115;-76
2023/08/27 11:37:07;;;;;;;5.00;3.20;;;36.80;72.40;;;;;;5062537;28;20498;-76
2023/08/27 11:39:35;;;;;;;6.22;4.25;;;37.00;72.00;;;;;;5062949;28;20632;-77
2023/08/27 11:42:01;;;;;;;0.45;0.25;;;37.30;71.60;;;;;;5061029;28;20020;-77
2023/08/27 11:44:27;;;;;;;2.15;1.77;;;36.40;69.30;;;;;;5062136;28;20100;-76
2023/08/27 11:47:05;;;;;;;0.95;0.50;;;37.80;69.50;;;;;;5063731;28;20020;-77
2023/08/27 11:49:37;;;;;;;0.80;0.43;;;38.10;69.30;;;;;;5063508;28;20048;-79
2023/08/27 11:52:04;;;;;;;0.80;0.80;;;38.30;68.20;;;;;;5061925;28;20677;-77
2023/08/27 11:54:31;;;;;;;0.57;0.38;;;38.50;67.60;;;;;;5060833;28;20051;-76
2023/08/27 11:56:58;;;;;;;1.85;0.77;;;38.90;67.20;;;;;;5061749;28;20025;-78
2023/08/27 11:59:28;;;;;;;1.30;0.65;;;39.20;68.10;;;;;;5061835;28;20051;-77
2023/08/27 12:01:56;;;;;;;2.78;1.13;;;39.50;66.30;;;;;;5060970;28;20184;-76
2023/08/27 12:04:24;;;;;;;0.35;0.30;;;39.80;65.50;;;;;;5061073;28;20044;-77
2023/08/27 12:06:56;;;;;;;0.52;0.45;;;40.20;66.90;;;;;;5062201;28;20059;-76
2023/08/27 12:09:24;;;;;;;0.22;0.22;;;40.40;63.80;;;;;;5061456;28;20126;-76
2023/08/27 12:11:50;;;;;;;3.25;1.10;;;39.30;61.90;;;;;;5061745;28;20715;-79
2023/08/27 12:14:23;;;;;;;1.60;0.50;;;40.70;62.40;;;;;;5061460;28;20023;-77
2023/08/27 12:16:49;;;;;;;0.77;0.57;;;40.70;62.20;;;;;;5059528;28;20532;-75
2023/08/27 12:19:19;;;;;;;0.20;0.20;;;40.60;62.20;;;;;;5059989;28;20565;-76
2023/08/27 12:21:53;;;;;;;0.82;0.82;;;40.50;61.80;;;;;;5059208;28;20044;-76
2023/08/27 12:24:42;;;;;;;0.85;0.35;;;40.70;61.30;;;;;;5059710;28;20229;-76
2023/08/27 12:27:10;;;;;;;2.30;0.32;;;41.50;61.40;;;;;;5043009;28;20051;-76
2023/08/27 12:29:41;;;;;;;0.38;0.32;;;40.90;60.40;;;;;;5058868;28;20026;-81
2023/08/27 12:32:12;;;;;;;0.10;0.10;;;40.70;60.20;;;;;;5059984;28;20123;-76
2023/08/27 12:34:38;;;;;;;1.77;0.85;;;41.00;60.10;;;;;;5060500;28;20028;-75
2023/08/27 12:37:06;;;;;;;1.65;0.77;;;41.10;59.90;;;;;;5059236;28;20040;-76
2023/08/27 12:39:33;;;;;;;1.63;0.98;;;41.20;58.60;;;;;;5060543;28;20024;-76
2023/08/27 12:42:02;;;;;;;0.52;0.52;;;41.20;58.10;;;;;;5059612;28;20124;-80
2023/08/27 12:44:29;;;;;;;4.68;1.52;;;41.10;58.60;;;;;;5060600;28;20724;-78
2023/08/27 12:46:55;;;;;;;3.63;1.98;;;41.30;59.20;;;;;;5060848;28;20025;-76
2023/08/27 12:49:24;;;;;;;1.63;0.85;;;41.30;59.20;;;;;;5060060;28;20770;-75
2023/08/27 12:51:50;;;;;;;2.60;2.15;;;41.40;58.30;;;;;;5059096;28;20717;-76
2023/08/27 12:54:17;;;;;;;10.75;4.75;;;41.20;58.00;;;;;;5059984;28;20028;-75